Time,TemperatureF,DewpointF,PressureIn,WindDirection,WindDirectionDegrees,WindSpeedMPH,WindSpeedGustMPH,Humidity,HourlyPrecipIn,Conditions,Clouds,dailyrainin,SoftwareType,DateUTC
2013-09-29 00:02:00,53.7,53.0,30.02,NW,314,0.0,0.0,97,0.00,,,0.75,weatherlink.com 1.10,2013-09-29 05:02:00,
2013-09-29 00:17:00,53.7,53.0,30.02,NW,313,0.0,0.0,97,0.00,,,0.75,weatherlink.com 1.10,2013-09-29 05:17:00,
2013-09-29 00:32:00,53.7,53.0,30.02,NW,314,0.0,0.0,97,0.00,,,0.00,weatherlink.com 1.10,2013-09-29 05:32:00,
2013-09-29 00:47:00,53.7,53.0,30.02,NW,314,0.0,0.0,97,0.00,,,0.00,weatherlink.com 1.10,2013-09-29 05:47:00,
2013-09-29 01:02:00,53.3,53.0,30.02,NW,314,0.0,0.0,97,0.00,,,0.00,weatherlink.com 1.10,2013-09-29 06:02:00,
2013-09-29 01:17:00,53.2,52.0,30.02,NW,314,0.0,0.0,97,0.00,,,0.00,weatherlink.com 1.10,2013-09-29 06:17:00,
2013-09-29 01:32:00,53.1,52.0,30.02,NW,314,0.0,0.0,97,0.00,,,0.00,weatherlink.com 1.10,2013-09-29 06:32:00,
2013-09-29 01:47:00,53.1,52.0,30.02,NW,314,0.0,0.0,97,0.00,,,0.00,weatherlink.com 1.10,2013-09-29 06:47:00,
2013-09-29 02:02:00,53.0,52.0,30.03,NW,314,0.0,0.0,97,0.00,,,0.00,weatherlink.com 1.10,2013-09-29 07:02:00,
2013-09-29 02:17:00,52.8,52.0,30.03,NW,313,0.0,0.0,97,0.00,,,0.00,weatherlink.com 1.10,2013-09-29 07:17:00,
2013-09-29 02:32:00,52.4,52.0,30.03,NW,314,0.0,0.0,97,0.00,,,0.00,weatherlink.com 1.10,2013-09-29 07:32:00,
2013-09-29 02:47:00,51.9,51.0,30.03,NW,314,0.0,0.0,97,0.00,,,0.00,weatherlink.com 1.10,2013-09-29 07:47:00,
2013-09-29 03:02:00,51.5,51.0,30.02,NW,314,0.0,0.0,97,0.00,,,0.00,weatherlink.com 1.10,2013-09-29 08:02:00,
2013-09-29 03:17:00,51.0,50.0,30.02,NW,313,0.0,0.0,97,0.00,,,0.00,weatherlink.com 1.10,2013-09-29 08:17:00,
2013-09-29 03:32:00,50.6,50.0,30.02,NW,312,0.0,0.0,97,0.00,,,0.00,weatherlink.com 1.10,2013-09-29 08:32:00,
2013-09-29 03:47:00,50.3,50.0,30.02,NW,311,0.0,0.0,97,0.00,,,0.00,weatherlink.com 1.10,2013-09-29 08:47:00,
2013-09-29 04:02:00,49.6,49.0,30.02,NW,312,0.0,0.0,97,0.00,,,0.00,weatherlink.com 1.10,2013-09-29 09:02:00,
2013-09-29 04:17:00,49.4,49.0,30.02,NW,311,0.0,0.0,97,0.00,,,0.00,weatherlink.com 1.10,2013-09-29 09:17:00,
2013-09-29 04:32:00,48.9,48.0,30.02,NW,311,0.0,0.0,97,0.00,,,0.00,weatherlink.com 1.10,2013-09-29 09:32:00,
2013-09-29 04:47:00,48.8,48.0,30.02,NW,312,0.0,0.0,97,0.00,,,0.00,weatherlink.com 1.10,2013-09-29 09:47:00,
2013-09-29 05:02:00,48.6,48.0,30.02,NW,312,0.0,0.0,97,0.00,,,0.00,weatherlink.com 1.10,2013-09-29 10:02:00,
2013-09-29 05:17:00,48.3,48.0,30.02,NW,311,0.0,0.0,97,0.01,,,0.01,weatherlink.com 1.10,2013-09-29 10:17:00,
2013-09-29 05:32:00,48.1,47.0,30.02,NW,311,0.0,0.0,97,0.01,,,0.01,weatherlink.com 1.10,2013-09-29 10:32:00,
2013-09-29 05:47:00,47.8,47.0,30.02,NW,312,0.0,0.0,97,0.01,,,0.01,weatherlink.com 1.10,2013-09-29 10:47:00,
2013-09-29 06:18:00,47.2,46.0,30.04,NW,312,0.0,0.0,97,0.00,,,0.01,weatherlink.com 1.10,2013-09-29 11:18:00,
2013-09-29 06:33:00,46.9,46.0,30.04,NW,311,0.0,0.0,97,0.00,,,0.01,weatherlink.com 1.10,2013-09-29 11:33:00,
2013-09-29 06:48:00,46.9,46.0,30.04,NW,311,0.0,0.0,97,0.00,,,0.01,weatherlink.com 1.10,2013-09-29 11:48:00,
2013-09-29 07:03:00,46.9,46.0,30.05,NW,311,0.0,0.0,97,0.00,,,0.01,weatherlink.com 1.10,2013-09-29 12:03:00,
2013-09-29 07:18:00,46.7,46.0,30.05,NW,312,0.0,0.0,97,0.00,,,0.01,weatherlink.com 1.10,2013-09-29 12:18:00,
2013-09-29 07:33:00,47.0,46.0,30.05,NW,311,0.0,0.0,97,0.00,,,0.01,weatherlink.com 1.10,2013-09-29 12:33:00,
2013-09-29 07:48:00,47.0,46.0,30.05,NW,311,0.0,0.0,97,0.00,,,0.01,weatherlink.com 1.10,2013-09-29 12:48:00,
2013-09-29 08:03:00,47.5,47.0,30.05,NW,311,0.0,0.0,97,0.00,,,0.01,weatherlink.com 1.10,2013-09-29 13:03:00,
2013-09-29 08:18:00,48.2,48.0,30.05,NW,312,0.0,0.0,98,0.00,,,0.01,weatherlink.com 1.10,2013-09-29 13:18:00,
2013-09-29 08:33:00,49.4,49.0,30.05,NW,312,0.0,0.0,98,0.00,,,0.01,weatherlink.com 1.10,2013-09-29 13:33:00,
2013-09-29 08:48:00,51.0,51.0,30.06,NW,312,0.0,0.0,98,0.00,,,0.01,weatherlink.com 1.10,2013-09-29 13:48:00,
2013-09-29 09:03:00,52.7,52.0,30.06,NW,314,0.0,0.0,98,0.00,,,0.01,weatherlink.com 1.10,2013-09-29 14:03:00,
2013-09-29 09:18:00,58.2,57.0,30.06,NW,314,0.0,0.0,97,0.00,,,0.01,weatherlink.com 1.10,2013-09-29 14:18:00,
2013-09-29 09:33:00,62.7,62.0,30.06,NW,314,0.0,0.0,97,0.00,,,0.01,weatherlink.com 1.10,2013-09-29 14:33:00,
2013-09-29 09:48:00,62.7,62.0,30.06,NW,313,0.0,0.0,97,0.00,,,0.01,weatherlink.com 1.10,2013-09-29 14:48:00,
2013-09-29 10:03:00,66.3,59.0,30.06,SW,222,0.0,0.0,77,0.00,,,0.01,weatherlink.com 1.10,2013-09-29 15:03:00,
2013-09-29 10:18:00,68.1,57.0,30.07,SW,219,0.0,2.0,68,0.00,,,0.01,weatherlink.com 1.10,2013-09-29 15:18:00,
2013-09-29 10:33:00,69.2,57.0,30.07,SSW,200,0.0,3.0,65,0.00,,,0.01,weatherlink.com 1.10,2013-09-29 15:33:00,
2013-09-29 10:48:00,69.5,56.0,30.07,South,191,0.0,4.0,62,0.00,,,0.01,weatherlink.com 1.10,2013-09-29 15:48:00,
2013-09-29 11:03:00,70.4,56.0,30.06,SSW,205,0.0,0.0,61,0.00,,,0.01,weatherlink.com 1.10,2013-09-29 16:03:00,
2013-09-29 11:18:00,69.8,52.0,30.06,SSW,207,2.0,3.0,54,0.00,,,0.01,weatherlink.com 1.10,2013-09-29 16:18:00,
2013-09-29 11:33:00,68.3,50.0,30.05,SSW,208,0.0,1.0,52,0.00,,,0.01,weatherlink.com 1.10,2013-09-29 16:33:00,
2013-09-29 11:48:00,67.1,49.0,30.05,NNE,32,0.0,0.0,53,0.00,,,0.01,weatherlink.com 1.10,2013-09-29 16:48:00,
2013-09-29 12:03:00,67.0,50.0,30.05,North,11,0.0,1.0,54,0.00,,,0.01,weatherlink.com 1.10,2013-09-29 17:03:00,
2013-09-29 12:18:00,67.4,51.0,30.04,South,170,0.0,1.0,56,0.00,,,0.01,weatherlink.com 1.10,2013-09-29 17:18:00,
2013-09-29 12:33:00,69.3,51.0,30.03,NNE,23,0.0,1.0,53,0.00,,,0.01,weatherlink.com 1.10,2013-09-29 17:33:00,
2013-09-29 12:48:00,71.4,54.0,30.02,SE,138,0.0,2.0,54,0.00,,,0.01,weatherlink.com 1.10,2013-09-29 17:48:00,
2013-09-29 13:03:00,72.9,51.0,30.02,NW,308,1.0,4.0,47,0.00,,,0.01,weatherlink.com 1.10,2013-09-29 18:03:00,
2013-09-29 13:18:00,73.7,52.0,30.01,SE,143,0.0,3.0,46,0.00,,,0.01,weatherlink.com 1.10,2013-09-29 18:18:00,
2013-09-29 13:33:00,74.0,52.0,30.00,SE,128,0.0,3.0,46,0.00,,,0.01,weatherlink.com 1.10,2013-09-29 18:33:00,
2013-09-29 13:49:00,75.6,53.0,29.98,WNW,296,0.0,3.0,45,0.00,,,0.01,weatherlink.com 1.10,2013-09-29 18:49:00,
2013-09-29 14:04:00,74.8,51.0,29.98,SSW,203,0.0,3.0,43,0.00,,,0.01,weatherlink.com 1.10,2013-09-29 19:04:00,
2013-09-29 14:19:00,73.7,50.0,29.97,NNE,25,0.0,3.0,44,0.00,,,0.01,weatherlink.com 1.10,2013-09-29 19:19:00,
2013-09-29 14:34:00,74.5,52.0,29.96,SE,133,0.0,1.0,46,0.00,,,0.01,weatherlink.com 1.10,2013-09-29 19:34:00,
2013-09-29 14:49:00,75.6,53.0,29.96,ESE,121,0.0,1.0,45,0.00,,,0.01,weatherlink.com 1.10,2013-09-29 19:49:00,
2013-09-29 15:04:00,75.7,52.0,29.95,East,91,0.0,2.0,44,0.00,,,0.01,weatherlink.com 1.10,2013-09-29 20:04:00,
2013-09-29 15:19:00,75.1,52.0,29.95,SSE,167,0.0,1.0,45,0.00,,,0.01,weatherlink.com 1.10,2013-09-29 20:19:00,
2013-09-29 15:34:00,73.6,51.0,29.94,SSE,163,0.0,2.0,45,0.00,,,0.01,weatherlink.com 1.10,2013-09-29 20:34:00,
2013-09-29 15:49:00,72.0,52.0,29.94,SSE,160,0.0,3.0,50,0.00,,,0.01,weatherlink.com 1.10,2013-09-29 20:49:00,
2013-09-29 16:04:00,71.5,51.0,29.93,SE,131,0.0,2.0,48,0.00,,,0.01,weatherlink.com 1.10,2013-09-29 21:04:00,
2013-09-29 16:19:00,71.2,51.0,29.93,SSE,155,0.0,1.0,49,0.00,,,0.01,weatherlink.com 1.10,2013-09-29 21:19:00,
2013-09-29 16:34:00,70.9,52.0,29.93,SE,136,0.0,1.0,52,0.00,,,0.01,weatherlink.com 1.10,2013-09-29 21:34:00,
2013-09-29 16:49:00,70.5,52.0,29.93,SSE,155,0.0,1.0,52,0.00,,,0.01,weatherlink.com 1.10,2013-09-29 21:49:00,
2013-09-29 17:04:00,69.9,52.0,29.92,SE,141,0.0,0.0,54,0.00,,,0.01,weatherlink.com 1.10,2013-09-29 22:04:00,
2013-09-29 17:19:00,69.7,51.0,29.92,ESE,121,0.0,1.0,52,0.00,,,0.01,weatherlink.com 1.10,2013-09-29 22:19:00,
2013-09-29 17:34:00,69.5,51.0,29.92,SE,124,0.0,1.0,53,0.00,,,0.01,weatherlink.com 1.10,2013-09-29 22:34:00,
2013-09-29 17:49:00,69.1,52.0,29.92,SE,124,0.0,0.0,54,0.00,,,0.01,weatherlink.com 1.10,2013-09-29 22:49:00,
2013-09-29 18:04:00,68.4,52.0,29.92,SE,124,0.0,0.0,56,0.00,,,0.01,weatherlink.com 1.10,2013-09-29 23:04:00,
2013-09-29 18:19:00,67.7,52.0,29.92,SE,124,0.0,0.0,57,0.00,,,0.01,weatherlink.com 1.10,2013-09-29 23:19:00,
2013-09-29 18:34:00,66.8,53.0,29.91,SE,124,0.0,0.0,61,0.00,,,0.01,weatherlink.com 1.10,2013-09-29 23:34:00,
2013-09-29 18:49:00,65.7,53.0,29.91,SE,124,0.0,0.0,63,0.00,,,0.01,weatherlink.com 1.10,2013-09-29 23:49:00,
2013-09-29 19:04:00,64.4,53.0,29.91,SE,124,0.0,0.0,66,0.00,,,0.01,weatherlink.com 1.10,2013-09-30 00:04:00,
2013-09-29 19:19:00,63.1,53.0,29.91,SE,124,0.0,0.0,70,0.00,,,0.01,weatherlink.com 1.10,2013-09-30 00:19:00,
2013-09-29 19:34:00,61.6,53.0,29.91,SE,124,0.0,0.0,74,0.00,,,0.01,weatherlink.com 1.10,2013-09-30 00:34:00,
2013-09-29 19:49:00,60.3,53.0,29.91,SE,124,0.0,0.0,77,0.00,,,0.01,weatherlink.com 1.10,2013-09-30 00:49:00,
2013-09-29 20:04:00,59.2,53.0,29.92,SE,124,0.0,0.0,79,0.00,,,0.01,weatherlink.com 1.10,2013-09-30 01:04:00,
2013-09-29 20:19:00,58.5,53.0,29.92,SE,124,0.0,0.0,82,0.00,,,0.01,weatherlink.com 1.10,2013-09-30 01:19:00,
2013-09-29 20:34:00,57.7,53.0,29.92,SE,124,0.0,0.0,84,0.00,,,0.01,weatherlink.com 1.10,2013-09-30 01:34:00,
2013-09-29 20:49:00,57.2,53.0,29.92,SE,124,0.0,0.0,85,0.00,,,0.01,weatherlink.com 1.10,2013-09-30 01:49:00,
2013-09-29 21:04:00,56.8,53.0,29.93,SE,124,0.0,0.0,86,0.00,,,0.01,weatherlink.com 1.10,2013-09-30 02:04:00,
2013-09-29 21:20:00,56.5,53.0,29.93,SE,124,0.0,0.0,88,0.00,,,0.01,weatherlink.com 1.10,2013-09-30 02:20:00,
2013-09-29 21:34:00,56.1,53.0,29.92,SE,124,0.0,0.0,88,0.00,,,0.01,weatherlink.com 1.10,2013-09-30 02:34:00,
2013-09-29 21:49:00,56.1,53.0,29.92,SE,124,0.0,0.0,88,0.00,,,0.01,weatherlink.com 1.10,2013-09-30 02:49:00,
2013-09-29 22:04:00,56.0,53.0,29.92,SE,124,0.0,0.0,89,0.00,,,0.01,weatherlink.com 1.10,2013-09-30 03:04:00,
2013-09-29 22:19:00,56.0,53.0,29.92,SE,124,0.0,0.0,89,0.00,,,0.01,weatherlink.com 1.10,2013-09-30 03:19:00,
2013-09-29 22:34:00,56.2,52.0,29.92,SE,124,0.0,0.0,87,0.00,,,0.01,weatherlink.com 1.10,2013-09-30 03:34:00,
2013-09-29 22:49:00,55.8,52.0,29.92,SE,124,0.0,0.0,87,0.00,,,0.01,weatherlink.com 1.10,2013-09-30 03:49:00,
2013-09-29 23:04:00,55.2,52.0,29.92,SE,124,0.0,0.0,88,0.00,,,0.01,weatherlink.com 1.10,2013-09-30 04:04:00,
2013-09-29 23:19:00,54.8,52.0,29.91,SE,124,0.0,0.0,90,0.00,,,0.01,weatherlink.com 1.10,2013-09-30 04:19:00,
2013-09-29 23:34:00,55.0,52.0,29.91,SE,124,0.0,0.0,89,0.00,,,0.01,weatherlink.com 1.10,2013-09-30 04:34:00,
2013-09-29 23:49:00,54.8,52.0,29.91,SE,124,0.0,0.0,90,0.00,,,0.01,weatherlink.com 1.10,2013-09-30 04:49:00,